Time;durP1;ratioP1;P1;durP2;ratioP2;P2;SDS_P1;SDS_P2;PMS_P1;PMS_P2;Temp;Humidity;BMP_temperature;BMP_pressure;BME280_temperature;BME280_humidity;BME280_pressure;Samples;Min_cycle;Max_cycle;Signal;HPM_P1;HPM_P2
2020/12/27 00:02:10;;;;;;;0.43;0.05;;;-5.40;56.50;;;;;;20829104;28;20041;-63
2020/12/27 00:12:12;;;;;;;0.57;0.10;;;-5.70;61.40;;;;;;20829620;28;20049;-64
2020/12/27 00:22:15;;;;;;;0.17;0.10;;;-6.00;61.10;;;;;;20828788;28;20114;-63
2020/12/27 00:32:17;;;;;;;0.33;0.10;;;-6.20;67.30;;;;;;20826261;28;20080;-64
2020/12/27 00:42:20;;;;;;;0.00;0.00;;;-6.40;67.90;;;;;;20826690;28;20064;-63
2020/12/27 00:52:22;;;;;;;0.10;0.00;;;-6.60;68.60;;;;;;20808458;28;20565;-64
2020/12/27 01:02:24;;;;;;;0.13;0.00;;;-6.70;69.80;;;;;;20806922;28;20080;-65
2020/12/27 01:12:46;;;;;;;0.08;0.00;;;-6.80;68.90;;;;;;20825238;28;20076;-64
2020/12/27 01:22:48;;;;;;;0.22;0.05;;;-6.50;62.50;;;;;;20807005;28;20450;-64
2020/12/27 01:33:00;;;;;;;0.00;0.00;;;-6.20;64.10;;;;;;20807424;28;20107;-63
2020/12/27 01:43:02;;;;;;;0.30;0.00;;;-6.80;68.70;;;;;;20805793;28;20046;-63
2020/12/27 01:53:04;;;;;;;0.32;0.10;;;-6.40;63.10;;;;;;20823021;28;20115;-64
2020/12/27 02:03:12;;;;;;;0.10;0.00;;;-6.40;70.60;;;;;;20805352;28;20171;-64
2020/12/27 02:13:15;;;;;;;0.50;0.00;;;-6.60;65.40;;;;;;20810145;28;20045;-64
2020/12/27 02:23:18;;;;;;;0.10;0.00;;;-6.80;69.20;;;;;;20820245;28;20033;-64
2020/12/27 02:33:28;;;;;;;0.53;0.10;;;-7.10;69.50;;;;;;20820037;28;20041;-63
2020/12/27 02:43:32;;;;;;;0.00;0.00;;;-7.10;69.60;;;;;;20802220;28;20033;-63
2020/12/27 02:53:35;;;;;;;0.00;0.00;;;-7.00;71.30;;;;;;20817487;28;20429;-64
2020/12/27 03:03:37;;;;;;;0.00;0.00;;;-7.00;67.50;;;;;;20800223;28;20561;-65
2020/12/27 03:14:09;;;;;;;0.10;0.00;;;-7.10;68.20;;;;;;20820489;28;20088;-63
2020/12/27 03:24:15;;;;;;;0.10;0.00;;;-7.00;70.30;;;;;;20814223;28;20045;-63
2020/12/27 03:34:19;;;;;;;0.00;0.00;;;-7.10;69.60;;;;;;20814491;28;20029;-63
2020/12/27 03:44:22;;;;;;;0.00;0.00;;;-7.70;73.20;;;;;;20813852;28;20049;-64
2020/12/27 03:54:53;;;;;;;0.87;0.10;;;-8.00;74.60;;;;;;20813635;28;20037;-63
2020/12/27 04:05:13;;;;;;;0.00;0.00;;;-7.90;73.40;;;;;;20829960;28;20045;-63
2020/12/27 04:15:17;;;;;;;0.00;0.00;;;-7.80;74.20;;;;;;20795006;28;20567;-63
2020/12/27 04:25:31;;;;;;;0.10;0.00;;;-8.00;75.00;;;;;;20810470;28;20072;-63
2020/12/27 04:35:33;;;;;;;0.10;0.00;;;-8.00;76.00;;;;;;20808734;28;20038;-63
2020/12/27 04:45:36;;;;;;;0.10;0.00;;;-8.10;76.70;;;;;;20809218;28;20037;-63
2020/12/27 04:56:02;;;;;;;0.00;0.00;;;-8.30;77.60;;;;;;20803023;28;20041;-63
2020/12/27 05:06:20;;;;;;;0.43;0.00;;;-8.20;76.80;;;;;;20807982;28;20100;-63
2020/12/27 05:16:23;;;;;;;0.10;0.00;;;-8.40;77.10;;;;;;20791611;28;20037;-63
2020/12/27 05:26:29;;;;;;;0.00;0.00;;;-8.30;77.70;;;;;;20808048;28;20037;-63
2020/12/27 05:36:48;;;;;;;0.00;0.00;;;-8.50;75.70;;;;;;20807102;28;20045;-63
2020/12/27 05:47:10;;;;;;;0.10;0.00;;;-8.30;72.50;;;;;;20810026;28;20448;-63
2020/12/27 05:57:15;;;;;;;0.00;0.00;;;-8.00;71.80;;;;;;20821702;28;20067;-63
2020/12/27 06:07:36;;;;;;;0.00;0.00;;;-8.00;72.50;;;;;;20820774;28;20050;-63
2020/12/27 06:17:51;;;;;;;0.25;0.00;;;-8.20;71.20;;;;;;20820518;28;20034;-63
2020/12/27 06:28:16;;;;;;;0.10;0.00;;;-8.40;74.30;;;;;;20832018;28;20053;-63
2020/12/27 06:38:45;;;;;;;0.10;0.00;;;-8.50;74.80;;;;;;20818828;28;20034;-63
2020/12/27 06:49:10;;;;;;;0.20;0.00;;;-8.60;73.80;;;;;;20802076;28;20494;-63
2020/12/27 06:59:31;;;;;;;0.30;0.00;;;-8.60;75.60;;;;;;20833787;28;20041;-63
2020/12/27 07:09:39;;;;;;;0.00;0.00;;;-8.30;74.70;;;;;;20816338;28;20111;-63
2020/12/27 07:19:41;;;;;;;0.10;0.00;;;-7.90;70.80;;;;;;20833055;28;20436;-63
2020/12/27 07:29:54;;;;;;;0.60;0.00;;;-7.70;71.20;;;;;;20832402;28;20103;-63
2020/12/27 07:39:58;;;;;;;0.10;0.00;;;-7.50;71.40;;;;;;20815055;28;20038;-63
2020/12/27 07:50:07;;;;;;;0.00;0.00;;;-7.50;69.10;;;;;;20830871;28;20075;-64
2020/12/27 08:00:09;;;;;;;0.00;0.00;;;-7.40;74.50;;;;;;20830229;28;20045;-64
2020/12/27 08:10:19;;;;;;;0.17;0.10;;;-6.70;73.50;;;;;;20829201;28;20053;-64
2020/12/27 08:20:22;;;;;;;0.10;0.00;;;-6.00;71.20;;;;;;20810268;28;20042;-64
2020/12/27 08:30:25;;;;;;;0.10;0.00;;;-5.10;68.10;;;;;;20828400;28;20475;-64
2020/12/27 08:40:31;;;;;;;0.20;0.00;;;-4.40;63.00;;;;;;20826405;28;20045;-65
2020/12/27 08:50:42;;;;;;;0.10;0.00;;;-3.70;65.90;;;;;;20826976;28;20045;-65
2020/12/27 09:00:47;;;;;;;0.50;0.10;;;-2.80;61.20;;;;;;20825516;28;20037;-66
2020/12/27 09:11:01;;;;;;;0.57;0.10;;;-1.90;59.90;;;;;;20807846;28;20072;-67
2020/12/27 09:21:07;;;;;;;0.70;0.30;;;-0.80;58.90;;;;;;20826340;28;20049;-65
2020/12/27 09:31:12;;;;;;;1.23;0.30;;;-0.10;52.90;;;;;;20841559;28;20048;-63
2020/12/27 09:41:20;;;;;;;0.20;0.17;;;0.80;51.20;;;;;;20822837;28;20049;-64
2020/12/27 09:51:22;;;;;;;0.80;0.32;;;1.40;52.00;;;;;;20839450;28;20107;-64
2020/12/27 10:01:26;;;;;;;0.40;0.20;;;1.70;53.40;;;;;;20822694;28;20033;-64
2020/12/27 10:11:28;;;;;;;1.05;0.30;;;2.40;53.40;;;;;;20755272;28;20050;-64
2020/12/27 10:21:30;;;;;;;0.70;0.22;;;2.80;47.30;;;;;;20754542;28;20435;-64
2020/12/27 10:31:33;;;;;;;1.30;0.50;;;3.10;50.10;;;;;;20754876;28;20092;-65
2020/12/27 10:41:39;;;;;;;1.40;0.77;;;4.00;54.50;;;;;;20753679;28;20088;-65
2020/12/27 10:51:41;;;;;;;0.85;0.40;;;4.30;52.20;;;;;;20753257;28;20476;-65
2020/12/27 11:01:48;;;;;;;0.93;0.50;;;4.10;50.80;;;;;;20753825;28;20041;-65
2020/12/27 11:11:52;;;;;;;1.33;0.50;;;4.10;52.20;;;;;;20821458;28;20054;-64
2020/12/27 11:21:54;;;;;;;2.00;0.70;;;4.30;51.90;;;;;;20815494;28;20030;-64
2020/12/27 11:31:57;;;;;;;1.85;0.85;;;4.70;52.00;;;;;;20831756;28;20060;-66
2020/12/27 11:41:59;;;;;;;1.90;1.00;;;4.20;49.90;;;;;;20831394;28;20056;-63
2020/12/27 11:52:01;;;;;;;1.60;0.80;;;4.30;52.70;;;;;;20830918;28;20049;-64
2020/12/27 12:02:03;;;;;;;2.33;1.33;;;4.20;53.00;;;;;;20962728;22;20072;-66
2020/12/27 12:12:07;;;;;;;3.22;1.60;;;4.00;56.70;;;;;;20829298;28;20050;-63
2020/12/27 12:22:10;;;;;;;2.13;1.50;;;3.40;57.80;;;;;;20811221;28;20046;-63
2020/12/27 12:32:12;;;;;;;3.03;1.80;;;2.80;59.60;;;;;;20828239;28;20411;-63
2020/12/27 12:42:14;;;;;;;3.50;1.75;;;2.20;59.80;;;;;;20809621;28;20045;-63
2020/12/27 12:52:16;;;;;;;2.63;1.55;;;2.10;65.40;;;;;;20793271;28;20037;-63
2020/12/27 13:02:18;;;;;;;2.28;1.30;;;1.60;65.70;;;;;;20823931;28;20064;-63
2020/12/27 13:12:20;;;;;;;3.83;1.25;;;1.80;65.60;;;;;;20826072;28;20088;-63
2020/12/27 13:22:23;;;;;;;2.92;1.75;;;1.60;64.80;;;;;;20824528;28;20041;-62
2020/12/27 13:32:25;;;;;;;3.78;2.00;;;1.40;68.50;;;;;;20825008;28;20367;-62
2020/12/27 13:42:27;;;;;;;3.55;1.75;;;0.80;71.60;;;;;;20824889;28;20037;-63
2020/12/27 13:52:30;;;;;;;3.58;1.85;;;0.10;75.70;;;;;;20824501;28;20037;-66
2020/12/27 14:02:33;;;;;;;4.72;2.35;;;-0.30;75.70;;;;;;20824344;28;20083;-64
2020/12/27 14:12:35;;;;;;;3.35;2.03;;;-1.00;82.70;;;;;;20832789;28;20045;-64
2020/12/27 14:22:37;;;;;;;2.75;1.58;;;-1.40;86.40;;;;;;20837954;28;20067;-65
2020/12/27 14:32:39;;;;;;;4.07;1.85;;;-2.00;90.30;;;;;;20837253;28;20041;-64
2020/12/27 14:42:41;;;;;;;3.45;1.35;;;-2.40;92.50;;;;;;20819203;28;20384;-65
2020/12/27 14:52:47;;;;;;;1.20;0.55;;;-2.80;90.90;;;;;;20799731;28;20095;-65
2020/12/27 15:02:52;;;;;;;8.50;2.22;;;-3.00;84.40;;;;;;20816338;28;20084;-65
2020/12/27 15:12:55;;;;;;;2.58;1.13;;;-3.50;84.80;;;;;;20800057;28;20557;-65
2020/12/27 15:22:57;;;;;;;2.42;1.02;;;-4.10;90.30;;;;;;20832514;28;20029;-64
2020/12/27 15:33:01;;;;;;;3.92;0.95;;;-4.60;90.20;;;;;;20832037;28;20095;-64
2020/12/27 15:43:04;;;;;;;2.05;0.80;;;-5.10;93.10;;;;;;20814403;28;20505;-64
2020/12/27 15:53:06;;;;;;;0.65;0.17;;;-5.40;94.60;;;;;;20830610;28;20444;-65
2020/12/27 16:03:09;;;;;;;0.63;0.20;;;-5.50;93.40;;;;;;20812442;28;20049;-64
2020/12/27 16:13:12;;;;;;;0.40;0.10;;;-5.50;91.70;;;;;;20811984;28;20522;-64
2020/12/27 16:23:14;;;;;;;1.33;0.20;;;-5.50;84.50;;;;;;20825126;28;20038;-64
2020/12/27 16:33:20;;;;;;;0.47;0.08;;;-5.40;88.20;;;;;;20828614;28;20041;-64
2020/12/27 16:43:22;;;;;;;0.40;0.10;;;-5.60;85.80;;;;;;20827398;28;20029;-64
2020/12/27 16:53:25;;;;;;;0.40;0.10;;;-5.80;86.60;;;;;;20826589;28;20049;-64
2020/12/27 17:03:27;;;;;;;0.52;0.28;;;-5.90;81.70;;;;;;20825675;28;20137;-64
2020/12/27 17:13:29;;;;;;;0.70;0.13;;;-5.60;86.20;;;;;;20807789;28;20037;-65
2020/12/27 17:23:32;;;;;;;0.40;0.17;;;-5.70;88.70;;;;;;20825326;28;20041;-65
2020/12/27 17:33:35;;;;;;;0.20;0.10;;;-5.70;90.40;;;;;;20824387;28;20084;-65
2020/12/27 17:43:39;;;;;;;0.65;0.30;;;-5.80;91.10;;;;;;20812290;28;20060;-65
2020/12/27 17:53:42;;;;;;;1.15;0.30;;;-5.90;91.70;;;;;;20839408;28;20049;-65
2020/12/27 18:03:45;;;;;;;1.30;0.40;;;-5.90;90.50;;;;;;20839539;28;20561;-65
2020/12/27 18:13:47;;;;;;;1.35;0.50;;;-5.70;91.40;;;;;;20820976;28;20041;-64
2020/12/27 18:23:51;;;;;;;0.90;0.40;;;-5.70;92.40;;;;;;20837990;28;20029;-64
2020/12/27 18:33:53;;;;;;;0.95;0.45;;;-5.50;92.10;;;;;;20833897;28;20054;-65
2020/12/27 18:43:56;;;;;;;0.73;0.20;;;-5.60;90.50;;;;;;20836695;28;20419;-65
2020/12/27 18:53:58;;;;;;;0.30;0.20;;;-5.50;87.70;;;;;;20834642;28;20365;-64
2020/12/27 19:04:00;;;;;;;1.52;0.30;;;-5.50;90.50;;;;;;20834912;28;20183;-65
2020/12/27 19:14:06;;;;;;;0.52;0.20;;;-5.40;84.50;;;;;;20834254;28;20474;-65
2020/12/27 19:24:09;;;;;;;0.38;0.10;;;-5.30;86.10;;;;;;20833119;28;20391;-64
2020/12/27 19:34:14;;;;;;;0.20;0.10;;;-5.30;82.70;;;;;;20833462;28;20159;-66
2020/12/27 19:44:17;;;;;;;0.43;0.17;;;-5.60;88.90;;;;;;20833269;28;20434;-65
2020/12/27 19:54:20;;;;;;;0.65;0.20;;;-5.90;88.70;;;;;;20830791;28;20045;-64
2020/12/27 20:04:23;;;;;;;0.60;0.10;;;-5.90;87.00;;;;;;20812024;28;20046;-64
2020/12/27 20:14:26;;;;;;;0.25;0.10;;;-5.20;69.70;;;;;;20829306;28;20053;-65
2020/12/27 20:24:29;;;;;;;0.43;0.20;;;-4.60;78.20;;;;;;20828875;28;20091;-67
2020/12/27 20:34:32;;;;;;;0.52;0.20;;;-4.40;75.40;;;;;;20809767;28;20049;-65
2020/12/27 20:44:37;;;;;;;0.88;0.32;;;-4.40;74.10;;;;;;20743907;28;20116;-65
2020/12/27 20:54:39;;;;;;;1.63;0.30;;;-4.10;73.10;;;;;;20745022;28;20053;-65
2020/12/27 21:04:43;;;;;;;0.80;0.30;;;-3.60;72.80;;;;;;20742568;28;20053;-65
2020/12/27 21:14:49;;;;;;;0.55;0.20;;;-3.00;83.30;;;;;;20792811;28;20085;-65
2020/12/27 21:24:54;;;;;;;1.05;0.45;;;-2.60;83.20;;;;;;20791635;28;20033;-64
2020/12/27 21:34:57;;;;;;;1.35;0.50;;;-2.10;83.80;;;;;;20825036;28;20115;-65
2020/12/27 21:45:00;;;;;;;1.05;0.47;;;-1.80;90.70;;;;;;20824548;28;20029;-64
2020/12/27 21:55:04;;;;;;;0.60;0.40;;;-1.60;93.10;;;;;;20806539;28;20053;-65
2020/12/27 22:05:07;;;;;;;1.77;0.60;;;-1.50;95.20;;;;;;20823760;28;20072;-65
2020/12/27 22:15:09;;;;;;;3.42;0.50;;;-1.80;91.40;;;;;;20740149;28;20084;-64
2020/12/27 22:25:11;;;;;;;1.25;0.60;;;-1.80;95.50;;;;;;20806516;28;20037;-65
2020/12/27 22:35:13;;;;;;;2.78;0.68;;;-1.70;98.90;;;;;;20834920;28;20103;-65
2020/12/27 22:45:15;;;;;;;1.50;0.70;;;-1.80;98.50;;;;;;20836611;28;20091;-64
2020/12/27 22:55:16;;;;;;;3.10;0.93;;;-2.10;98.60;;;;;;20801937;28;20045;-64
2020/12/27 23:05:19;;;;;;;2.20;0.93;;;-2.60;93.40;;;;;;20816182;28;20061;-65
2020/12/27 23:15:22;;;;;;;1.73;0.93;;;-3.00;93.10;;;;;;20834597;28;20037;-65
2020/12/27 23:25:24;;;;;;;2.60;1.08;;;-3.40;98.50;;;;;;20833888;28;20549;-65
2020/12/27 23:35:27;;;;;;;2.72;1.30;;;-4.10;99.90;;;;;;20833468;28;20057;-64
2020/12/27 23:45:29;;;;;;;2.78;1.27;;;-4.50;99.90;;;;;;20831480;28;20029;-64
2020/12/27 23:55:31;;;;;;;1.85;0.60;;;-4.50;99.90;;;;;;20812803;28;20057;-65
